sensor_id;sensor_type;location;lat;lon;timestamp;P1;durP1;ratioP1;P2;durP2;ratioP2
46110;SDS011;31849;55.992;37.252;2023-07-16T00:02:35;10.37;;;6.77;;
46110;SDS011;31849;55.992;37.252;2023-07-16T00:07:40;13.10;;;8.27;;
46110;SDS011;31849;55.992;37.252;2023-07-16T00:12:44;9.73;;;7.40;;
46110;SDS011;31849;55.992;37.252;2023-07-16T00:17:48;11.03;;;7.37;;
46110;SDS011;31849;55.992;37.252;2023-07-16T00:22:53;11.70;;;8.03;;
46110;SDS011;31849;55.992;37.252;2023-07-16T00:27:59;10.82;;;8.13;;
46110;SDS011;31849;55.992;37.252;2023-07-16T00:33:02;10.98;;;8.93;;
46110;SDS011;31849;55.992;37.252;2023-07-16T00:38:07;11.77;;;9.33;;
46110;SDS011;31849;55.992;37.252;2023-07-16T00:43:11;11.27;;;9.70;;
46110;SDS011;31849;55.992;37.252;2023-07-16T00:48:15;13.88;;;9.13;;
46110;SDS011;31849;55.992;37.252;2023-07-16T00:53:20;12.40;;;9.73;;
46110;SDS011;31849;55.992;37.252;2023-07-16T00:58:24;11.75;;;9.30;;
46110;SDS011;31849;55.992;37.252;2023-07-16T01:03:28;14.35;;;10.60;;
46110;SDS011;31849;55.992;37.252;2023-07-16T01:08:35;11.67;;;10.10;;
46110;SDS011;31849;55.992;37.252;2023-07-16T01:13:44;13.82;;;9.55;;
46110;SDS011;31849;55.992;37.252;2023-07-16T01:18:48;13.27;;;9.77;;
46110;SDS011;31849;55.992;37.252;2023-07-16T01:23:59;13.90;;;10.00;;
46110;SDS011;31849;55.992;37.252;2023-07-16T01:29:33;14.50;;;10.25;;
46110;SDS011;31849;55.992;37.252;2023-07-16T01:34:39;11.32;;;9.35;;
46110;SDS011;31849;55.992;37.252;2023-07-16T01:39:43;13.63;;;10.45;;
46110;SDS011;31849;55.992;37.252;2023-07-16T01:44:48;13.18;;;9.93;;
46110;SDS011;31849;55.992;37.252;2023-07-16T01:49:52;13.07;;;10.85;;
46110;SDS011;31849;55.992;37.252;2023-07-16T01:54:55;15.97;;;10.27;;
46110;SDS011;31849;55.992;37.252;2023-07-16T02:00:00;13.90;;;10.43;;
46110;SDS011;31849;55.992;37.252;2023-07-16T02:05:05;17.25;;;10.52;;
46110;SDS011;31849;55.992;37.252;2023-07-16T02:10:09;12.05;;;9.98;;
46110;SDS011;31849;55.992;37.252;2023-07-16T02:15:14;14.00;;;10.93;;
46110;SDS011;31849;55.992;37.252;2023-07-16T02:20:19;13.43;;;11.50;;
46110;SDS011;31849;55.992;37.252;2023-07-16T02:25:23;14.23;;;12.27;;
46110;SDS011;31849;55.992;37.252;2023-07-16T02:30:28;14.70;;;12.60;;
46110;SDS011;31849;55.992;37.252;2023-07-16T02:35:32;15.13;;;11.77;;
46110;SDS011;31849;55.992;37.252;2023-07-16T02:40:35;14.88;;;11.50;;
46110;SDS011;31849;55.992;37.252;2023-07-16T02:45:40;13.47;;;11.13;;
46110;SDS011;31849;55.992;37.252;2023-07-16T02:50:44;14.32;;;10.13;;
46110;SDS011;31849;55.992;37.252;2023-07-16T02:55:48;14.60;;;10.60;;
46110;SDS011;31849;55.992;37.252;2023-07-16T03:00:53;13.37;;;9.57;;
46110;SDS011;31849;55.992;37.252;2023-07-16T03:05:56;14.18;;;9.82;;
46110;SDS011;31849;55.992;37.252;2023-07-16T03:11:00;11.80;;;8.60;;
46110;SDS011;31849;55.992;37.252;2023-07-16T03:16:05;10.97;;;8.80;;
46110;SDS011;31849;55.992;37.252;2023-07-16T03:21:09;9.18;;;8.27;;
46110;SDS011;31849;55.992;37.252;2023-07-16T03:26:13;8.57;;;7.70;;
46110;SDS011;31849;55.992;37.252;2023-07-16T03:31:18;12.57;;;7.55;;
46110;SDS011;31849;55.992;37.252;2023-07-16T03:36:22;11.00;;;7.75;;
46110;SDS011;31849;55.992;37.252;2023-07-16T03:41:25;10.80;;;8.33;;
46110;SDS011;31849;55.992;37.252;2023-07-16T03:46:30;8.95;;;8.05;;
46110;SDS011;31849;55.992;37.252;2023-07-16T03:51:34;11.50;;;8.13;;
46110;SDS011;31849;55.992;37.252;2023-07-16T03:56:37;12.73;;;8.73;;
46110;SDS011;31849;55.992;37.252;2023-07-16T04:01:42;11.13;;;8.63;;
46110;SDS011;31849;55.992;37.252;2023-07-16T04:06:46;13.55;;;8.73;;
46110;SDS011;31849;55.992;37.252;2023-07-16T04:11:50;10.67;;;8.70;;
46110;SDS011;31849;55.992;37.252;2023-07-16T04:16:55;10.10;;;8.73;;
46110;SDS011;31849;55.992;37.252;2023-07-16T04:21:58;10.10;;;8.13;;
46110;SDS011;31849;55.992;37.252;2023-07-16T04:27:02;10.40;;;8.48;;
46110;SDS011;31849;55.992;37.252;2023-07-16T04:37:11;9.15;;;6.93;;
46110;SDS011;31849;55.992;37.252;2023-07-16T04:42:15;8.60;;;7.37;;
46110;SDS011;31849;55.992;37.252;2023-07-16T04:47:20;10.98;;;7.28;;
46110;SDS011;31849;55.992;37.252;2023-07-16T04:52:24;9.55;;;6.85;;
46110;SDS011;31849;55.992;37.252;2023-07-16T04:57:28;8.00;;;6.70;;
46110;SDS011;31849;55.992;37.252;2023-07-16T05:02:33;9.10;;;6.88;;
46110;SDS011;31849;55.992;37.252;2023-07-16T05:07:36;9.57;;;6.50;;
46110;SDS011;31849;55.992;37.252;2023-07-16T05:12:40;9.20;;;7.27;;
46110;SDS011;31849;55.992;37.252;2023-07-16T05:17:45;7.50;;;6.80;;
46110;SDS011;31849;55.992;37.252;2023-07-16T05:22:50;9.48;;;6.88;;
46110;SDS011;31849;55.992;37.252;2023-07-16T05:27:54;9.15;;;6.57;;
46110;SDS011;31849;55.992;37.252;2023-07-16T05:32:59;9.05;;;7.10;;
46110;SDS011;31849;55.992;37.252;2023-07-16T05:38:02;11.90;;;7.72;;
46110;SDS011;31849;55.992;37.252;2023-07-16T05:43:06;8.15;;;6.47;;
46110;SDS011;31849;55.992;37.252;2023-07-16T05:48:11;6.78;;;5.70;;
46110;SDS011;31849;55.992;37.252;2023-07-16T05:53:15;8.20;;;6.65;;
46110;SDS011;31849;55.992;37.252;2023-07-16T05:58:19;6.95;;;6.25;;
46110;SDS011;31849;55.992;37.252;2023-07-16T06:03:24;8.38;;;6.28;;
46110;SDS011;31849;55.992;37.252;2023-07-16T06:08:28;7.10;;;6.38;;
46110;SDS011;31849;55.992;37.252;2023-07-16T06:13:32;6.50;;;5.80;;
46110;SDS011;31849;55.992;37.252;2023-07-16T06:18:37;8.30;;;6.15;;
46110;SDS011;31849;55.992;37.252;2023-07-16T06:23:41;10.73;;;5.88;;
46110;SDS011;31849;55.992;37.252;2023-07-16T06:28:45;7.80;;;5.20;;
46110;SDS011;31849;55.992;37.252;2023-07-16T06:33:52;8.05;;;5.57;;
46110;SDS011;31849;55.992;37.252;2023-07-16T06:38:56;7.35;;;4.78;;
46110;SDS011;31849;55.992;37.252;2023-07-16T06:44:02;9.10;;;5.82;;
46110;SDS011;31849;55.992;37.252;2023-07-16T06:54:10;7.15;;;4.75;;
46110;SDS011;31849;55.992;37.252;2023-07-16T06:59:14;5.07;;;4.57;;
46110;SDS011;31849;55.992;37.252;2023-07-16T07:04:19;5.20;;;4.03;;
46110;SDS011;31849;55.992;37.252;2023-07-16T07:09:23;6.63;;;3.95;;
46110;SDS011;31849;55.992;37.252;2023-07-16T07:14:27;6.40;;;4.15;;
46110;SDS011;31849;55.992;37.252;2023-07-16T07:19:32;3.50;;;3.17;;
46110;SDS011;31849;55.992;37.252;2023-07-16T07:24:35;5.95;;;3.53;;
46110;SDS011;31849;55.992;37.252;2023-07-16T07:34:44;7.40;;;3.80;;
46110;SDS011;31849;55.992;37.252;2023-07-16T07:39:51;6.50;;;3.90;;
46110;SDS011;31849;55.992;37.252;2023-07-16T07:44:55;4.78;;;3.60;;
46110;SDS011;31849;55.992;37.252;2023-07-16T07:55:04;4.60;;;4.00;;
46110;SDS011;31849;55.992;37.252;2023-07-16T08:00:09;5.60;;;3.90;;
46110;SDS011;31849;55.992;37.252;2023-07-16T08:05:15;9.35;;;3.85;;
46110;SDS011;31849;55.992;37.252;2023-07-16T08:10:19;4.88;;;3.38;;
46110;SDS011;31849;55.992;37.252;2023-07-16T08:20:27;4.20;;;3.80;;
46110;SDS011;31849;55.992;37.252;2023-07-16T08:25:31;6.63;;;4.30;;
46110;SDS011;31849;55.992;37.252;2023-07-16T08:30:35;5.75;;;4.32;;
46110;SDS011;31849;55.992;37.252;2023-07-16T08:35:40;5.68;;;4.55;;
46110;SDS011;31849;55.992;37.252;2023-07-16T08:40:46;6.47;;;4.10;;
46110;SDS011;31849;55.992;37.252;2023-07-16T08:45:50;3.55;;;3.25;;
46110;SDS011;31849;55.992;37.252;2023-07-16T08:50:56;3.63;;;3.17;;
46110;SDS011;31849;55.992;37.252;2023-07-16T08:56:01;4.55;;;3.67;;
46110;SDS011;31849;55.992;37.252;2023-07-16T09:01:07;4.28;;;3.38;;
46110;SDS011;31849;55.992;37.252;2023-07-16T09:06:13;7.25;;;3.67;;
46110;SDS011;31849;55.992;37.252;2023-07-16T09:11:18;4.03;;;3.22;;
46110;SDS011;31849;55.992;37.252;2023-07-16T09:16:23;4.55;;;3.03;;
46110;SDS011;31849;55.992;37.252;2023-07-16T09:21:30;5.20;;;3.30;;
46110;SDS011;31849;55.992;37.252;2023-07-16T09:26:36;3.33;;;2.78;;
46110;SDS011;31849;55.992;37.252;2023-07-16T09:31:50;4.00;;;3.00;;
46110;SDS011;31849;55.992;37.252;2023-07-16T09:36:57;4.80;;;2.97;;
46110;SDS011;31849;55.992;37.252;2023-07-16T09:42:03;5.00;;;3.20;;
46110;SDS011;31849;55.992;37.252;2023-07-16T09:47:08;4.32;;;2.70;;
46110;SDS011;31849;55.992;37.252;2023-07-16T09:57:17;3.88;;;3.05;;
46110;SDS011;31849;55.992;37.252;2023-07-16T10:02:21;5.55;;;3.30;;
46110;SDS011;31849;55.992;37.252;2023-07-16T10:07:26;3.80;;;3.08;;
46110;SDS011;31849;55.992;37.252;2023-07-16T10:12:30;3.97;;;2.78;;
46110;SDS011;31849;55.992;37.252;2023-07-16T10:22:39;4.30;;;2.70;;
46110;SDS011;31849;55.992;37.252;2023-07-16T10:27:45;3.20;;;2.60;;
46110;SDS011;31849;55.992;37.252;2023-07-16T10:32:50;4.13;;;2.50;;
46110;SDS011;31849;55.992;37.252;2023-07-16T10:37:57;5.10;;;2.45;;
46110;SDS011;31849;55.992;37.252;2023-07-16T10:43:00;5.40;;;2.78;;
46110;SDS011;31849;55.992;37.252;2023-07-16T10:48:05;5.75;;;2.92;;
46110;SDS011;31849;55.992;37.252;2023-07-16T10:53:10;3.72;;;2.55;;
46110;SDS011;31849;55.992;37.252;2023-07-16T10:58:15;4.43;;;3.30;;
46110;SDS011;31849;55.992;37.252;2023-07-16T11:03:18;3.75;;;2.55;;
46110;SDS011;31849;55.992;37.252;2023-07-16T11:08:24;4.07;;;2.67;;
46110;SDS011;31849;55.992;37.252;2023-07-16T11:13:28;2.90;;;2.60;;
46110;SDS011;31849;55.992;37.252;2023-07-16T11:18:34;5.07;;;2.70;;
46110;SDS011;31849;55.992;37.252;2023-07-16T11:23:39;3.85;;;2.78;;
46110;SDS011;31849;55.992;37.252;2023-07-16T11:28:43;4.28;;;2.92;;
46110;SDS011;31849;55.992;37.252;2023-07-16T11:33:47;3.90;;;3.05;;
46110;SDS011;31849;55.992;37.252;2023-07-16T11:38:53;4.57;;;3.10;;
46110;SDS011;31849;55.992;37.252;2023-07-16T11:43:59;5.35;;;3.03;;
46110;SDS011;31849;55.992;37.252;2023-07-16T11:49:03;5.28;;;3.08;;
46110;SDS011;31849;55.992;37.252;2023-07-16T11:54:09;4.38;;;2.92;;
46110;SDS011;31849;55.992;37.252;2023-07-16T11:59:13;4.35;;;3.10;;
46110;SDS011;31849;55.992;37.252;2023-07-16T12:04:18;3.78;;;2.60;;
46110;SDS011;31849;55.992;37.252;2023-07-16T12:09:23;4.53;;;2.95;;
46110;SDS011;31849;55.992;37.252;2023-07-16T12:14:26;6.90;;;3.10;;
46110;SDS011;31849;55.992;37.252;2023-07-16T12:19:30;3.40;;;2.70;;
46110;SDS011;31849;55.992;37.252;2023-07-16T12:24:35;5.18;;;2.90;;
46110;SDS011;31849;55.992;37.252;2023-07-16T12:29:39;4.68;;;3.30;;
46110;SDS011;31849;55.992;37.252;2023-07-16T12:34:42;4.13;;;3.30;;
46110;SDS011;31849;55.992;37.252;2023-07-16T12:39:47;3.90;;;3.00;;
46110;SDS011;31849;55.992;37.252;2023-07-16T12:44:51;4.95;;;3.20;;
46110;SDS011;31849;55.992;37.252;2023-07-16T12:54:59;8.43;;;3.40;;
46110;SDS011;31849;55.992;37.252;2023-07-16T13:00:05;3.47;;;3.17;;
46110;SDS011;31849;55.992;37.252;2023-07-16T13:05:11;4.55;;;3.13;;
46110;SDS011;31849;55.992;37.252;2023-07-16T13:10:16;4.15;;;3.20;;
46110;SDS011;31849;55.992;37.252;2023-07-16T13:15:24;5.00;;;3.40;;
46110;SDS011;31849;55.992;37.252;2023-07-16T13:30:37;5.45;;;3.30;;
46110;SDS011;31849;55.992;37.252;2023-07-16T13:35:41;5.07;;;3.67;;
46110;SDS011;31849;55.992;37.252;2023-07-16T13:45:50;6.03;;;3.65;;
46110;SDS011;31849;55.992;37.252;2023-07-16T13:55:58;4.27;;;3.47;;
46110;SDS011;31849;55.992;37.252;2023-07-16T14:01:02;5.03;;;3.70;;
46110;SDS011;31849;55.992;37.252;2023-07-16T14:06:06;5.13;;;3.83;;
46110;SDS011;31849;55.992;37.252;2023-07-16T14:11:11;5.07;;;3.47;;
46110;SDS011;31849;55.992;37.252;2023-07-16T14:16:15;5.20;;;3.63;;
46110;SDS011;31849;55.992;37.252;2023-07-16T14:21:19;4.75;;;3.63;;
46110;SDS011;31849;55.992;37.252;2023-07-16T14:26:25;3.97;;;3.50;;
46110;SDS011;31849;55.992;37.252;2023-07-16T14:31:28;4.10;;;3.42;;
46110;SDS011;31849;55.992;37.252;2023-07-16T14:41:37;4.20;;;3.73;;
46110;SDS011;31849;55.992;37.252;2023-07-16T14:46:40;6.95;;;3.78;;
46110;SDS011;31849;55.992;37.252;2023-07-16T14:51:45;5.40;;;3.90;;
46110;SDS011;31849;55.992;37.252;2023-07-16T14:56:50;6.25;;;3.47;;
46110;SDS011;31849;55.992;37.252;2023-07-16T15:01:53;5.65;;;3.90;;
46110;SDS011;31849;55.992;37.252;2023-07-16T15:06:57;5.53;;;3.60;;
46110;SDS011;31849;55.992;37.252;2023-07-16T15:17:05;4.55;;;3.45;;
46110;SDS011;31849;55.992;37.252;2023-07-16T15:22:09;5.80;;;3.50;;
46110;SDS011;31849;55.992;37.252;2023-07-16T15:27:14;3.75;;;3.25;;
46110;SDS011;31849;55.992;37.252;2023-07-16T15:32:18;5.03;;;3.38;;
46110;SDS011;31849;55.992;37.252;2023-07-16T15:42:27;4.80;;;3.53;;
46110;SDS011;31849;55.992;37.252;2023-07-16T15:47:31;5.43;;;3.45;;
46110;SDS011;31849;55.992;37.252;2023-07-16T15:52:35;4.70;;;3.50;;
46110;SDS011;31849;55.992;37.252;2023-07-16T15:57:40;7.10;;;3.83;;
46110;SDS011;31849;55.992;37.252;2023-07-16T16:02:44;8.43;;;3.25;;
46110;SDS011;31849;55.992;37.252;2023-07-16T16:13:08;4.82;;;3.22;;
46110;SDS011;31849;55.992;37.252;2023-07-16T16:18:11;4.88;;;3.40;;
46110;SDS011;31849;55.992;37.252;2023-07-16T16:23:16;5.97;;;3.80;;
46110;SDS011;31849;55.992;37.252;2023-07-16T16:33:25;5.95;;;3.80;;
46110;SDS011;31849;55.992;37.252;2023-07-16T16:38:29;6.65;;;3.55;;
46110;SDS011;31849;55.992;37.252;2023-07-16T16:43:34;5.18;;;3.75;;
46110;SDS011;31849;55.992;37.252;2023-07-16T16:48:38;5.88;;;3.85;;
46110;SDS011;31849;55.992;37.252;2023-07-16T16:53:44;6.95;;;4.20;;
46110;SDS011;31849;55.992;37.252;2023-07-16T16:58:49;6.25;;;4.05;;
46110;SDS011;31849;55.992;37.252;2023-07-16T17:03:54;8.25;;;4.35;;
46110;SDS011;31849;55.992;37.252;2023-07-16T17:08:58;7.80;;;4.05;;
46110;SDS011;31849;55.992;37.252;2023-07-16T17:14:03;7.35;;;4.90;;
46110;SDS011;31849;55.992;37.252;2023-07-16T17:19:07;5.47;;;4.00;;
46110;SDS011;31849;55.992;37.252;2023-07-16T17:24:11;7.38;;;4.50;;
46110;SDS011;31849;55.992;37.252;2023-07-16T17:29:16;6.85;;;4.80;;
46110;SDS011;31849;55.992;37.252;2023-07-16T17:34:21;5.45;;;4.72;;
46110;SDS011;31849;55.992;37.252;2023-07-16T17:39:25;7.85;;;4.80;;
46110;SDS011;31849;55.992;37.252;2023-07-16T17:44:30;7.40;;;5.00;;
46110;SDS011;31849;55.992;37.252;2023-07-16T17:49:34;5.60;;;5.00;;
46110;SDS011;31849;55.992;37.252;2023-07-16T17:54:37;6.90;;;4.40;;
46110;SDS011;31849;55.992;37.252;2023-07-16T17:59:42;6.22;;;5.15;;
46110;SDS011;31849;55.992;37.252;2023-07-16T18:04:46;8.82;;;5.03;;
46110;SDS011;31849;55.992;37.252;2023-07-16T18:09:50;8.55;;;5.20;;
46110;SDS011;31849;55.992;37.252;2023-07-16T18:14:56;6.70;;;5.47;;
46110;SDS011;31849;55.992;37.252;2023-07-16T18:20:00;6.95;;;4.88;;
46110;SDS011;31849;55.992;37.252;2023-07-16T18:25:06;8.88;;;5.35;;
46110;SDS011;31849;55.992;37.252;2023-07-16T18:30:12;10.77;;;5.82;;
46110;SDS011;31849;55.992;37.252;2023-07-16T18:35:15;7.78;;;5.40;;
46110;SDS011;31849;55.992;37.252;2023-07-16T18:40:20;9.77;;;5.82;;
46110;SDS011;31849;55.992;37.252;2023-07-16T18:45:25;11.20;;;6.20;;
46110;SDS011;31849;55.992;37.252;2023-07-16T18:50:29;13.43;;;6.55;;
46110;SDS011;31849;55.992;37.252;2023-07-16T18:55:32;8.90;;;5.97;;
46110;SDS011;31849;55.992;37.252;2023-07-16T19:00:37;12.30;;;6.53;;
46110;SDS011;31849;55.992;37.252;2023-07-16T19:05:41;12.32;;;6.32;;
46110;SDS011;31849;55.992;37.252;2023-07-16T19:10:47;14.70;;;5.93;;
46110;SDS011;31849;55.992;37.252;2023-07-16T19:15:53;9.97;;;6.50;;
46110;SDS011;31849;55.992;37.252;2023-07-16T19:20:56;14.00;;;7.28;;
46110;SDS011;31849;55.992;37.252;2023-07-16T19:26:00;12.00;;;7.50;;
46110;SDS011;31849;55.992;37.252;2023-07-16T19:31:05;13.13;;;8.18;;
46110;SDS011;31849;55.992;37.252;2023-07-16T19:36:09;12.98;;;8.13;;
46110;SDS011;31849;55.992;37.252;2023-07-16T19:41:15;12.38;;;7.65;;
46110;SDS011;31849;55.992;37.252;2023-07-16T19:46:20;15.93;;;8.18;;
46110;SDS011;31849;55.992;37.252;2023-07-16T19:51:24;13.55;;;8.77;;
46110;SDS011;31849;55.992;37.252;2023-07-16T19:56:28;11.63;;;8.57;;
46110;SDS011;31849;55.992;37.252;2023-07-16T20:01:33;11.48;;;8.40;;
46110;SDS011;31849;55.992;37.252;2023-07-16T20:06:37;13.63;;;8.63;;
46110;SDS011;31849;55.992;37.252;2023-07-16T20:11:46;13.57;;;9.27;;
46110;SDS011;31849;55.992;37.252;2023-07-16T20:16:52;14.18;;;9.50;;
46110;SDS011;31849;55.992;37.252;2023-07-16T20:21:56;14.20;;;8.98;;
46110;SDS011;31849;55.992;37.252;2023-07-16T20:26:59;20.97;;;9.50;;
46110;SDS011;31849;55.992;37.252;2023-07-16T20:32:05;18.10;;;9.15;;
46110;SDS011;31849;55.992;37.252;2023-07-16T20:37:09;14.43;;;10.13;;
46110;SDS011;31849;55.992;37.252;2023-07-16T20:42:13;13.38;;;10.57;;
46110;SDS011;31849;55.992;37.252;2023-07-16T20:47:18;16.05;;;11.10;;
46110;SDS011;31849;55.992;37.252;2023-07-16T20:52:22;12.15;;;9.43;;
46110;SDS011;31849;55.992;37.252;2023-07-16T20:57:25;15.93;;;10.57;;
46110;SDS011;31849;55.992;37.252;2023-07-16T21:02:30;15.27;;;10.68;;
46110;SDS011;31849;55.992;37.252;2023-07-16T21:07:34;15.02;;;10.70;;
46110;SDS011;31849;55.992;37.252;2023-07-16T21:12:40;17.38;;;11.50;;
46110;SDS011;31849;55.992;37.252;2023-07-16T21:17:46;19.80;;;11.73;;
46110;SDS011;31849;55.992;37.252;2023-07-16T21:22:49;14.88;;;11.52;;
46110;SDS011;31849;55.992;37.252;2023-07-16T21:27:57;15.23;;;12.63;;
46110;SDS011;31849;55.992;37.252;2023-07-16T21:33:04;16.13;;;12.00;;
46110;SDS011;31849;55.992;37.252;2023-07-16T21:38:07;17.65;;;11.88;;
46110;SDS011;31849;55.992;37.252;2023-07-16T21:43:11;18.17;;;13.40;;
46110;SDS011;31849;55.992;37.252;2023-07-16T21:48:18;16.33;;;12.65;;
46110;SDS011;31849;55.992;37.252;2023-07-16T21:53:21;15.05;;;12.30;;
46110;SDS011;31849;55.992;37.252;2023-07-16T21:58:25;21.70;;;12.93;;
46110;SDS011;31849;55.992;37.252;2023-07-16T22:03:30;15.00;;;12.53;;
46110;SDS011;31849;55.992;37.252;2023-07-16T22:08:34;20.20;;;12.52;;
46110;SDS011;31849;55.992;37.252;2023-07-16T22:13:37;19.23;;;14.70;;
46110;SDS011;31849;55.992;37.252;2023-07-16T22:18:43;18.23;;;13.77;;
46110;SDS011;31849;55.992;37.252;2023-07-16T22:23:47;18.42;;;15.27;;
46110;SDS011;31849;55.992;37.252;2023-07-16T22:28:50;17.53;;;13.70;;
46110;SDS011;31849;55.992;37.252;2023-07-16T22:33:55;17.40;;;14.23;;
46110;SDS011;31849;55.992;37.252;2023-07-16T22:38:59;19.38;;;14.48;;
46110;SDS011;31849;55.992;37.252;2023-07-16T22:44:03;20.23;;;15.85;;
46110;SDS011;31849;55.992;37.252;2023-07-16T22:49:08;20.80;;;15.33;;
46110;SDS011;31849;55.992;37.252;2023-07-16T22:54:12;22.98;;;15.63;;
46110;SDS011;31849;55.992;37.252;2023-07-16T22:59:16;21.35;;;16.30;;
46110;SDS011;31849;55.992;37.252;2023-07-16T23:04:21;19.50;;;15.90;;
46110;SDS011;31849;55.992;37.252;2023-07-16T23:09:24;23.55;;;15.98;;
46110;SDS011;31849;55.992;37.252;2023-07-16T23:14:28;25.17;;;16.77;;
46110;SDS011;31849;55.992;37.252;2023-07-16T23:19:37;21.98;;;15.60;;
46110;SDS011;31849;55.992;37.252;2023-07-16T23:24:41;22.42;;;16.00;;
46110;SDS011;31849;55.992;37.252;2023-07-16T23:29:44;23.20;;;16.97;;
46110;SDS011;31849;55.992;37.252;2023-07-16T23:34:49;22.47;;;16.30;;
46110;SDS011;31849;55.992;37.252;2023-07-16T23:39:53;19.80;;;16.52;;
46110;SDS011;31849;55.992;37.252;2023-07-16T23:44:56;26.73;;;17.35;;
46110;SDS011;31849;55.992;37.252;2023-07-16T23:50:02;23.50;;;16.90;;
46110;SDS011;31849;55.992;37.252;2023-07-16T23:55:06;26.38;;;17.50;;
